createdAt,value
2018-02-18T00:00:19.415Z,26.23
2018-02-18T00:02:45.778Z,26.33
2018-02-18T00:05:12.145Z,26.20
2018-02-18T00:07:38.503Z,24.60
2018-02-18T00:10:04.869Z,28.03
2018-02-18T00:12:31.998Z,28.53
2018-02-18T00:14:59.960Z,27.43
2018-02-18T00:17:27.062Z,26.20
2018-02-18T00:19:53.434Z,25.50
2018-02-18T00:22:19.793Z,27.97
2018-02-18T00:24:46.189Z,25.97
2018-02-18T00:27:12.602Z,27.77
2018-02-18T00:29:38.972Z,26.70
2018-02-18T00:32:05.328Z,27.27
2018-02-18T00:34:31.700Z,27.33
2018-02-18T00:36:58.080Z,28.90
2018-02-18T00:39:25.186Z,27.90
2018-02-18T00:41:51.553Z,28.20
2018-02-18T00:44:18.691Z,28.97
2018-02-18T00:46:45.064Z,29.57
2018-02-18T00:49:11.485Z,27.77
2018-02-18T00:51:37.900Z,29.20
2018-02-18T00:54:04.991Z,30.10
2018-02-18T00:56:31.389Z,30.17
2018-02-18T00:58:57.754Z,28.60
2018-02-18T01:01:24.116Z,30.00
2018-02-18T01:03:50.509Z,31.73
2018-02-18T01:06:16.879Z,31.57
2018-02-18T01:08:43.241Z,33.70
2018-02-18T01:11:10.344Z,33.03
2018-02-18T01:13:36.711Z,33.83
2018-02-18T01:16:03.843Z,31.40
2018-02-18T01:18:30.188Z,28.77
2018-02-18T01:20:56.544Z,31.30
2018-02-18T01:23:22.923Z,29.87
2018-02-18T01:25:49.314Z,27.70
2018-02-18T01:28:15.693Z,29.23
2018-02-18T01:30:42.055Z,29.43
2018-02-18T01:33:09.153Z,27.53
2018-02-18T01:35:35.519Z,27.30
2018-02-18T01:38:01.939Z,28.83
2018-02-18T01:40:28.266Z,27.83
2018-02-18T01:42:54.663Z,27.90
2018-02-18T01:45:21.020Z,30.33
2018-02-18T01:47:47.391Z,28.80
2018-02-18T01:50:26.935Z,32.97
2018-02-18T01:52:54.043Z,31.37
2018-02-18T01:55:20.434Z,30.53
2018-02-18T01:57:46.811Z,33.80
2018-02-18T02:00:13.192Z,30.90
2018-02-18T02:02:39.551Z,27.77
2018-02-18T02:05:05.938Z,28.23
2018-02-18T02:07:33.050Z,33.47
2018-02-18T02:09:59.436Z,29.63
2018-02-18T02:12:25.799Z,31.40
2018-02-18T02:14:52.251Z,28.43
2018-02-18T02:17:18.625Z,28.70
2018-02-18T02:19:45.802Z,29.07
2018-02-18T02:22:12.162Z,27.47
2018-02-18T02:24:38.519Z,28.27
2018-02-18T02:27:05.624Z,29.20
2018-02-18T02:29:32.082Z,29.47
2018-02-18T02:31:58.451Z,29.37
2018-02-18T02:34:25.608Z,28.13
2018-02-18T02:36:51.979Z,27.90
2018-02-18T02:39:18.354Z,26.93
2018-02-18T02:41:45.467Z,25.47
2018-02-18T02:44:11.840Z,28.00
2018-02-18T02:46:38.966Z,25.93
2018-02-18T02:49:06.080Z,26.20
2018-02-18T02:51:32.439Z,27.63
2018-02-18T02:53:58.838Z,25.43
2018-02-18T02:56:25.224Z,25.20
2018-02-18T02:58:52.334Z,25.20
2018-02-18T03:01:18.712Z,25.57
2018-02-18T03:03:45.122Z,25.80
2018-02-18T03:06:11.491Z,25.10
2018-02-18T03:08:37.854Z,23.93
2018-02-18T03:11:04.256Z,24.40
2018-02-18T03:13:30.611Z,25.20
2018-02-18T03:15:56.984Z,23.83
2018-02-18T03:18:24.122Z,26.20
2018-02-18T03:20:50.511Z,23.63
2018-02-18T03:23:16.858Z,23.33
2018-02-18T03:25:43.216Z,25.50
2018-02-18T03:28:10.343Z,24.90
2018-02-18T03:30:36.735Z,23.90
2018-02-18T03:33:03.110Z,23.57
2018-02-18T03:35:29.503Z,23.77
2018-02-18T03:37:55.862Z,25.17
2018-02-18T03:40:22.228Z,22.80
2018-02-18T03:42:48.589Z,23.93
2018-02-18T03:45:14.948Z,24.50
2018-02-18T03:47:41.326Z,23.80
2018-02-18T03:50:08.453Z,24.73
2018-02-18T03:52:34.818Z,24.33
2018-02-18T03:55:01.952Z,22.67
2018-02-18T03:57:28.302Z,22.53
2018-02-18T03:59:55.394Z,23.50
2018-02-18T04:02:21.756Z,23.50
2018-02-18T04:04:48.125Z,20.47
2018-02-18T04:07:14.488Z,22.20
2018-02-18T04:09:40.843Z,23.67
2018-02-18T04:12:07.218Z,22.90
2018-02-18T04:14:34.324Z,22.43
2018-02-18T04:17:00.679Z,22.13
2018-02-18T04:19:27.818Z,23.83
2018-02-18T04:21:54.918Z,23.30
2018-02-18T04:24:21.271Z,23.13
2018-02-18T04:26:47.632Z,23.77
2018-02-18T04:29:13.993Z,23.00
2018-02-18T04:31:40.367Z,24.58
2018-02-18T04:34:08.241Z,24.13
2018-02-18T04:36:34.623Z,23.90
2018-02-18T04:39:00.988Z,23.00
2018-02-18T04:41:27.382Z,22.30
2018-02-18T04:43:53.764Z,24.27
2018-02-18T04:46:20.139Z,21.00
2018-02-18T04:48:46.518Z,23.40
2018-02-18T04:51:12.892Z,21.40
2018-02-18T04:53:40.023Z,24.00
2018-02-18T04:56:06.434Z,22.40
2018-02-18T04:58:32.796Z,25.67
2018-02-18T05:00:59.895Z,22.70
2018-02-18T05:03:26.313Z,22.03
2018-02-18T05:05:52.671Z,21.50
2018-02-18T05:08:19.033Z,19.20
2018-02-18T05:10:45.397Z,21.73
2018-02-18T05:13:11.750Z,20.97
2018-02-18T05:15:38.127Z,20.70
2018-02-18T05:18:05.968Z,20.67
2018-02-18T05:20:32.348Z,22.80
2018-02-18T05:22:59.462Z,23.17
2018-02-18T05:25:25.835Z,24.30
2018-02-18T05:27:52.199Z,24.73
2018-02-18T05:30:18.562Z,22.23
2018-02-18T05:32:44.928Z,24.10
2018-02-18T05:35:11.282Z,22.60
2018-02-18T05:37:37.655Z,25.07
2018-02-18T05:40:04.023Z,21.43
2018-02-18T05:42:30.410Z,21.57
2018-02-18T05:44:56.768Z,22.07
2018-02-18T05:47:23.903Z,22.10
2018-02-18T05:49:50.263Z,25.00
2018-02-18T05:52:17.373Z,22.30
2018-02-18T05:54:43.734Z,21.13
2018-02-18T05:57:10.849Z,22.07
2018-02-18T05:59:37.204Z,20.23
2018-02-18T06:02:04.315Z,22.10
2018-02-18T06:04:30.686Z,24.15
2018-02-18T06:06:57.853Z,22.40
2018-02-18T06:09:24.222Z,25.88
2018-02-18T06:11:50.576Z,23.40
2018-02-18T06:14:16.949Z,23.87
2018-02-18T06:16:43.303Z,23.62
2018-02-18T06:19:09.656Z,22.98
2018-02-18T06:21:36.023Z,23.02
2018-02-18T06:24:03.197Z,25.70
2018-02-18T06:26:29.578Z,25.62
2018-02-18T06:28:55.963Z,24.57
2018-02-18T06:31:22.336Z,24.53
2018-02-18T06:33:48.808Z,26.50
2018-02-18T06:36:15.166Z,22.95
2018-02-18T06:38:41.530Z,24.30
2018-02-18T06:41:07.923Z,25.45
2018-02-18T06:43:34.299Z,24.77
2018-02-18T06:46:00.671Z,22.70
2018-02-18T06:48:27.035Z,26.92
2018-02-18T06:50:53.514Z,26.52
2018-02-18T06:53:20.636Z,25.97
2018-02-18T06:55:46.995Z,28.42
2018-02-18T06:58:14.106Z,27.37
2018-02-18T07:00:41.270Z,28.30
2018-02-18T07:03:07.663Z,31.08
2018-02-18T07:05:34.058Z,29.65
2018-02-18T07:08:00.459Z,26.92
2018-02-18T07:10:26.949Z,26.73
2018-02-18T07:12:53.382Z,27.92
2018-02-18T07:15:19.742Z,28.90
2018-02-18T07:17:46.140Z,29.17
2018-02-18T07:20:12.486Z,28.30
2018-02-18T07:22:38.854Z,27.23
2018-02-18T07:25:05.228Z,31.43
2018-02-18T07:27:31.618Z,29.80
2018-02-18T07:29:58.004Z,29.73
2018-02-18T07:32:24.356Z,29.60
2018-02-18T07:34:50.743Z,30.00
2018-02-18T07:37:17.949Z,29.93
2018-02-18T07:39:44.319Z,30.60
2018-02-18T07:42:10.683Z,27.43
2018-02-18T07:44:37.063Z,29.67
2018-02-18T07:47:04.381Z,27.87
2018-02-18T07:49:30.743Z,29.90
2018-02-18T07:51:57.114Z,27.90
2018-02-18T07:54:23.511Z,28.63
2018-02-18T07:56:49.870Z,29.50
2018-02-18T07:59:16.992Z,25.73
2018-02-18T08:01:43.371Z,30.07
2018-02-18T08:04:09.742Z,31.10
2018-02-18T08:06:36.156Z,32.00
2018-02-18T08:09:02.530Z,31.00
2018-02-18T08:11:28.961Z,32.87
2018-02-18T08:13:56.864Z,31.50
2018-02-18T08:16:23.265Z,30.90
2018-02-18T08:18:50.447Z,31.20
2018-02-18T08:21:16.819Z,33.33
2018-02-18T08:23:43.212Z,32.90
2018-02-18T08:26:09.588Z,33.20
2018-02-18T08:28:35.973Z,33.30
2018-02-18T08:31:02.369Z,29.67
2018-02-18T08:33:28.809Z,30.63
2018-02-18T08:35:55.948Z,30.23
2018-02-18T08:38:23.121Z,29.40
2018-02-18T08:40:50.232Z,30.50
2018-02-18T08:43:16.652Z,29.00
2018-02-18T08:45:43.026Z,29.07
2018-02-18T08:48:10.159Z,29.90
2018-02-18T08:50:36.578Z,29.53
2018-02-18T08:53:02.984Z,27.57
2018-02-18T08:55:29.365Z,26.83
2018-02-18T08:57:55.732Z,26.37
2018-02-18T09:00:22.095Z,23.63
2018-02-18T09:02:48.462Z,24.93
2018-02-18T09:05:16.324Z,26.40
2018-02-18T09:07:42.708Z,27.10
2018-02-18T09:10:09.103Z,27.03
2018-02-18T09:12:35.479Z,26.30
2018-02-18T09:15:01.858Z,23.77
2018-02-18T09:17:29.028Z,25.07
2018-02-18T09:19:56.107Z,23.73
2018-02-18T09:22:22.510Z,23.87
2018-02-18T09:24:49.617Z,25.23
2018-02-18T09:27:15.999Z,24.90
2018-02-18T09:29:42.436Z,23.40
2018-02-18T09:32:08.815Z,27.10
2018-02-18T09:34:35.201Z,24.37
2018-02-18T09:37:01.558Z,25.53
2018-02-18T09:39:28.707Z,25.60
2018-02-18T09:41:55.063Z,23.17
2018-02-18T09:44:22.175Z,23.47
2018-02-18T09:46:48.560Z,24.23
2018-02-18T09:49:15.694Z,22.77
2018-02-18T09:51:42.137Z,21.90
2018-02-18T09:54:09.275Z,21.40
2018-02-18T09:56:36.388Z,22.80
2018-02-18T09:59:02.793Z,21.70
2018-02-18T10:01:29.900Z,63.57
2018-02-18T10:03:56.284Z,37.90
2018-02-18T10:06:22.681Z,47.57
2018-02-18T10:11:19.160Z,89.23
2018-02-18T10:13:45.560Z,131.37
2018-02-18T10:16:11.955Z,34.73
2018-02-18T10:18:38.326Z,25.47
2018-02-18T10:21:04.701Z,27.77
2018-02-18T10:23:31.123Z,25.40
2018-02-18T10:25:57.513Z,26.07
2018-02-18T10:28:23.912Z,22.73
2018-02-18T10:30:50.287Z,22.00
2018-02-18T10:33:16.756Z,21.17
2018-02-18T10:35:43.228Z,21.57
2018-02-18T10:38:09.623Z,23.27
2018-02-18T10:40:36.031Z,26.53
2018-02-18T10:43:03.186Z,20.00
2018-02-18T10:45:29.575Z,18.80
2018-02-18T10:47:55.947Z,25.70
2018-02-18T10:50:23.062Z,18.97
2018-02-18T10:52:49.454Z,18.53
2018-02-18T10:55:15.853Z,21.60
2018-02-18T10:57:42.955Z,20.33
2018-02-18T11:00:09.365Z,21.97
2018-02-18T11:02:35.739Z,39.53
2018-02-18T11:05:02.171Z,23.47
2018-02-18T11:07:28.579Z,21.03
2018-02-18T11:09:54.953Z,20.80
2018-02-18T11:12:21.350Z,20.17
2018-02-18T11:14:47.715Z,20.77
2018-02-18T11:17:14.907Z,20.47
2018-02-18T11:19:41.291Z,20.77
2018-02-18T11:22:07.676Z,20.40
2018-02-18T11:24:34.038Z,22.20
2018-02-18T11:27:00.389Z,19.67
2018-02-18T11:29:26.793Z,19.07
2018-02-18T11:31:53.208Z,20.83
2018-02-18T11:34:19.604Z,19.30
2018-02-18T11:36:46.843Z,16.63
2018-02-18T11:39:13.248Z,16.87
2018-02-18T11:41:39.696Z,18.10
2018-02-18T11:44:06.891Z,18.37
2018-02-18T11:46:33.329Z,17.50
2018-02-18T11:48:59.790Z,18.70
2018-02-18T11:51:26.211Z,17.53
2018-02-18T11:53:52.652Z,15.97
2018-02-18T11:56:19.079Z,17.13
2018-02-18T11:58:45.538Z,17.77
2018-02-18T12:01:12.709Z,14.83
2018-02-18T12:03:39.852Z,14.73
2018-02-18T12:06:06.253Z,14.40
2018-02-18T12:08:32.694Z,15.90
2018-02-18T12:10:59.115Z,16.10
2018-02-18T12:13:25.532Z,14.47
2018-02-18T12:15:51.930Z,15.63
2018-02-18T12:18:19.098Z,14.70
2018-02-18T12:20:45.702Z,14.83
2018-02-18T12:23:12.131Z,15.50
2018-02-18T12:25:38.499Z,16.10
2018-02-18T12:28:05.129Z,16.00
2018-02-18T12:30:31.510Z,16.53
2018-02-18T12:32:57.937Z,16.10
2018-02-18T12:35:24.361Z,15.30
2018-02-18T12:37:50.735Z,17.20
2018-02-18T12:40:17.946Z,16.20
2018-02-18T12:42:44.365Z,15.13
2018-02-18T12:45:10.752Z,15.70
2018-02-18T12:47:38.624Z,15.47
2018-02-18T12:50:05.822Z,15.73
2018-02-18T12:52:32.232Z,14.73
2018-02-18T12:54:58.619Z,13.27
2018-02-18T12:57:25.067Z,11.63
2018-02-18T12:59:52.227Z,13.33
2018-02-18T13:02:19.403Z,14.37
2018-02-18T13:04:45.810Z,14.23
2018-02-18T13:07:12.997Z,13.40
2018-02-18T13:09:39.420Z,14.10
2018-02-18T13:12:05.853Z,12.70
2018-02-18T13:14:33.100Z,13.70
2018-02-18T13:16:59.523Z,12.27
2018-02-18T13:19:25.957Z,13.30
2018-02-18T13:21:52.962Z,12.33
2018-02-18T13:24:19.471Z,12.40
2018-02-18T13:26:46.737Z,11.80
2018-02-18T13:29:13.138Z,11.27
2018-02-18T13:31:39.532Z,9.80
2018-02-18T13:34:06.666Z,9.53
2018-02-18T13:36:33.075Z,9.27
2018-02-18T13:38:59.473Z,7.70
2018-02-18T13:41:39.453Z,8.47
2018-02-18T13:44:05.873Z,10.00
2018-02-18T13:46:32.556Z,7.53
2018-02-18T13:48:59.750Z,7.60
2018-02-18T13:51:26.205Z,9.57
2018-02-18T13:53:52.607Z,7.60
2018-02-18T13:56:19.008Z,7.03
2018-02-18T13:58:46.183Z,7.37
2018-02-18T14:01:12.610Z,7.13
2018-02-18T14:03:39.093Z,7.93
2018-02-18T14:06:05.523Z,7.40
2018-02-18T14:08:31.971Z,8.10
2018-02-18T14:10:58.389Z,7.87
2018-02-18T14:13:24.851Z,9.00
2018-02-18T14:15:51.981Z,8.13
2018-02-18T14:18:18.446Z,8.13
2018-02-18T14:20:45.638Z,7.67
2018-02-18T14:23:12.096Z,9.30
2018-02-18T14:25:38.522Z,9.67
2018-02-18T14:28:04.962Z,8.67
2018-02-18T14:30:31.397Z,10.03
2018-02-18T14:32:57.818Z,8.80
2018-02-18T14:35:24.200Z,12.33
2018-02-18T14:37:51.316Z,12.03
2018-02-18T14:40:17.696Z,14.33
2018-02-18T14:42:56.319Z,15.67
2018-02-18T14:45:35.091Z,13.33
2018-02-18T14:48:13.734Z,11.80
2018-02-18T14:50:53.194Z,13.70
2018-02-18T14:53:32.040Z,12.60
2018-02-18T14:56:24.636Z,14.63
2018-02-18T14:58:51.776Z,12.27
2018-02-18T15:01:18.167Z,12.60
2018-02-18T15:03:44.523Z,13.70
2018-02-18T15:06:10.904Z,13.97
2018-02-18T15:08:38.064Z,16.10
2018-02-18T15:11:04.735Z,13.87
2018-02-18T15:13:31.142Z,15.97
2018-02-18T15:15:57.543Z,12.63
2018-02-18T15:18:24.661Z,11.57
2018-02-18T15:20:51.048Z,12.60
2018-02-18T15:23:17.414Z,11.80
2018-02-18T15:25:43.769Z,13.67
2018-02-18T15:28:10.133Z,11.67
2018-02-18T15:30:37.253Z,12.10
2018-02-18T15:33:03.709Z,11.17
2018-02-18T15:35:30.886Z,12.43
2018-02-18T15:37:57.260Z,13.60
2018-02-18T15:40:23.650Z,12.50
2018-02-18T15:42:50.079Z,13.40
2018-02-18T15:45:16.492Z,12.67
2018-02-18T15:47:43.672Z,14.13
2018-02-18T15:50:10.056Z,12.80
2018-02-18T15:52:37.206Z,12.43
2018-02-18T15:55:04.384Z,13.47
2018-02-18T15:57:31.537Z,13.07
2018-02-18T15:59:58.403Z,13.60
2018-02-18T16:02:24.822Z,11.93
2018-02-18T16:04:51.280Z,13.43
2018-02-18T16:07:17.719Z,12.77
2018-02-18T16:09:44.210Z,14.07
2018-02-18T16:12:10.637Z,14.10
2018-02-18T16:14:37.090Z,14.20
2018-02-18T16:17:03.535Z,13.03
2018-02-18T16:19:29.937Z,13.07
2018-02-18T16:21:56.364Z,14.90
2018-02-18T16:24:22.804Z,14.53
2018-02-18T16:26:49.172Z,14.93
2018-02-18T16:29:15.744Z,14.00
2018-02-18T16:31:42.885Z,13.07
2018-02-18T16:34:10.023Z,14.57
2018-02-18T16:36:36.409Z,14.23
2018-02-18T16:39:02.847Z,13.20
2018-02-18T16:41:29.228Z,13.87
2018-02-18T16:43:56.338Z,14.60
2018-02-18T16:46:22.754Z,13.53
2018-02-18T16:48:49.115Z,14.47
2018-02-18T16:51:15.491Z,16.90
2018-02-18T16:53:41.858Z,14.40
2018-02-18T16:56:08.272Z,14.80
2018-02-18T16:58:34.639Z,16.00
2018-02-18T17:01:01.003Z,86.20
2018-02-18T17:03:27.394Z,86.43
2018-02-18T17:05:53.816Z,43.00
2018-02-18T17:08:20.707Z,17.07
2018-02-18T17:10:47.112Z,25.90
2018-02-18T17:13:13.527Z,19.43
2018-02-18T17:15:39.996Z,17.87
2018-02-18T17:18:06.380Z,17.53
2018-02-18T17:20:33.665Z,16.67
2018-02-18T17:23:00.075Z,17.57
2018-02-18T17:25:26.473Z,14.67
2018-02-18T17:27:53.587Z,14.23
2018-02-18T17:30:19.949Z,14.47
2018-02-18T17:32:47.076Z,13.73
2018-02-18T17:35:14.298Z,18.50
2018-02-18T17:37:40.715Z,15.90
2018-02-18T17:40:07.145Z,13.10
2018-02-18T17:42:33.616Z,23.30
2018-02-18T17:45:00.839Z,23.87
2018-02-18T17:47:27.240Z,25.33
2018-02-18T17:49:54.392Z,29.43
2018-02-18T17:52:20.790Z,24.30
2018-02-18T17:54:47.187Z,17.60
2018-02-18T17:57:13.564Z,13.17
2018-02-18T17:59:40.035Z,14.63
2018-02-18T18:02:06.432Z,11.87
2018-02-18T18:04:32.976Z,13.33
2018-02-18T18:07:00.091Z,12.70
2018-02-18T18:09:26.513Z,13.47
2018-02-18T18:11:54.135Z,14.33
2018-02-18T18:14:21.265Z,12.80
2018-02-18T18:16:49.141Z,15.40
2018-02-18T18:19:16.313Z,14.57
2018-02-18T18:21:42.746Z,15.33
2018-02-18T18:24:10.305Z,14.97
2018-02-18T18:26:36.705Z,15.40
2018-02-18T18:29:03.112Z,14.57
2018-02-18T18:31:29.508Z,21.90
2018-02-18T18:33:55.880Z,22.57
2018-02-18T18:36:22.290Z,20.53
2018-02-18T18:38:48.704Z,20.67
2018-02-18T18:41:15.115Z,17.97
2018-02-18T18:43:41.573Z,19.53
2018-02-18T18:46:07.999Z,17.13
2018-02-18T18:48:34.408Z,18.40
2018-02-18T18:51:00.844Z,16.70
2018-02-18T18:53:27.240Z,15.97
2018-02-18T18:55:53.634Z,16.53
2018-02-18T18:58:20.029Z,17.60
2018-02-18T19:00:47.213Z,16.37
2018-02-18T19:03:13.592Z,14.43
2018-02-18T19:05:41.487Z,16.07
2018-02-18T19:08:08.625Z,15.93
2018-02-18T19:10:35.738Z,15.57
2018-02-18T19:13:02.148Z,15.23
2018-02-18T19:15:28.516Z,14.93
2018-02-18T19:17:54.876Z,16.23
2018-02-18T19:20:21.230Z,17.67
2018-02-18T19:22:47.632Z,15.60
2018-02-18T19:25:14.772Z,17.33
2018-02-18T19:27:42.099Z,17.13
2018-02-18T19:30:08.499Z,17.60
2018-02-18T19:32:34.865Z,17.50
2018-02-18T19:35:01.270Z,17.23
2018-02-18T19:37:27.639Z,16.47
2018-02-18T19:39:53.999Z,16.63
2018-02-18T19:42:21.110Z,17.37
2018-02-18T19:44:47.466Z,18.07
2018-02-18T19:47:13.810Z,16.87
2018-02-18T19:49:40.205Z,20.00
2018-02-18T19:52:06.594Z,44.77
2018-02-18T19:54:33.684Z,44.77
2018-02-18T19:57:00.078Z,26.93
2018-02-18T19:59:26.456Z,19.00
2018-02-18T20:01:52.823Z,14.90
2018-02-18T20:04:19.205Z,16.20
2018-02-18T20:06:45.567Z,16.53
2018-02-18T20:09:12.720Z,17.73
2018-02-18T20:11:39.087Z,18.80
2018-02-18T20:14:05.515Z,19.67
2018-02-18T20:16:31.861Z,17.50
2018-02-18T20:18:58.255Z,18.27
2018-02-18T20:21:25.352Z,26.60
2018-02-18T20:23:51.714Z,26.20
2018-02-18T20:26:18.094Z,31.33
2018-02-18T20:28:44.463Z,22.93
2018-02-18T20:31:10.855Z,15.33
2018-02-18T20:33:37.263Z,19.70
2018-02-18T20:36:04.389Z,17.00
2018-02-18T20:38:31.512Z,15.23
2018-02-18T20:40:57.923Z,15.60
2018-02-18T20:43:24.306Z,18.20
2018-02-18T20:45:50.740Z,43.37
2018-02-18T20:48:18.659Z,75.20
2018-02-18T20:50:45.012Z,53.00
2018-02-18T20:53:11.370Z,41.60
2018-02-18T20:55:37.769Z,31.93
2018-02-18T20:58:04.127Z,42.57
2018-02-18T21:00:30.493Z,37.10
2018-02-18T21:02:57.610Z,37.83
2018-02-18T21:05:23.988Z,19.83
2018-02-18T21:07:50.361Z,19.77
2018-02-18T21:10:16.709Z,19.20
2018-02-18T21:12:43.901Z,15.87
2018-02-18T21:15:10.288Z,15.50
2018-02-18T21:17:36.698Z,15.40
2018-02-18T21:20:03.091Z,21.57
2018-02-18T21:22:29.482Z,18.33
2018-02-18T21:24:55.850Z,19.37
2018-02-18T21:27:22.930Z,26.07
2018-02-18T21:29:49.296Z,17.90
2018-02-18T21:32:15.660Z,16.53
2018-02-18T21:34:42.088Z,14.83
2018-02-18T21:37:09.220Z,18.50
2018-02-18T21:39:36.319Z,13.93
2018-02-18T21:42:02.695Z,18.90
2018-02-18T21:44:29.057Z,17.90
2018-02-18T21:46:56.164Z,16.10
2018-02-18T21:49:22.522Z,17.13
2018-02-18T21:51:49.624Z,15.85
2018-02-18T21:54:16.020Z,13.50
2018-02-18T21:56:43.130Z,14.40
2018-02-18T21:59:09.503Z,16.83
2018-02-18T22:01:35.883Z,18.03
2018-02-18T22:04:02.296Z,24.40
2018-02-18T22:06:28.640Z,16.17
2018-02-18T22:08:55.014Z,18.23
2018-02-18T22:11:21.419Z,16.17
2018-02-18T22:13:47.791Z,13.73
2018-02-18T22:16:14.178Z,12.10
2018-02-18T22:18:41.296Z,12.18
2018-02-18T22:21:07.667Z,12.25
2018-02-18T22:23:35.013Z,11.73
2018-02-18T22:26:02.139Z,11.85
2018-02-18T22:28:28.498Z,12.15
2018-02-18T22:30:56.333Z,12.48
2018-02-18T22:33:22.756Z,12.85
2018-02-18T22:35:49.119Z,12.65
2018-02-18T22:38:15.530Z,12.48
2018-02-18T22:40:41.884Z,12.70
2018-02-18T22:43:08.261Z,13.70
2018-02-18T22:45:34.624Z,12.40
2018-02-18T22:48:01.003Z,11.40
2018-02-18T22:50:28.191Z,11.12
2018-02-18T22:52:54.602Z,10.70
2018-02-18T22:55:20.986Z,11.35
2018-02-18T22:57:47.350Z,11.40
2018-02-18T23:00:16.360Z,11.05
2018-02-18T23:02:42.726Z,11.82
2018-02-18T23:05:15.207Z,11.48
2018-02-18T23:07:41.566Z,10.55
2018-02-18T23:10:09.406Z,11.55
2018-02-18T23:12:35.842Z,11.85
2018-02-18T23:15:02.257Z,10.35
2018-02-18T23:17:28.636Z,9.38
2018-02-18T23:19:55.763Z,11.05
2018-02-18T23:22:23.652Z,11.23
2018-02-18T23:24:50.764Z,9.88
2018-02-18T23:27:17.128Z,9.93
2018-02-18T23:29:43.521Z,10.90
2018-02-18T23:32:09.904Z,11.12
2018-02-18T23:34:36.997Z,11.52
2018-02-18T23:37:03.363Z,10.18
2018-02-18T23:39:29.747Z,10.43
2018-02-18T23:41:56.118Z,11.73
2018-02-18T23:44:22.468Z,11.65
2018-02-18T23:46:49.575Z,10.75
2018-02-18T23:49:15.947Z,10.55
2018-02-18T23:51:42.291Z,12.37
2018-02-18T23:54:09.382Z,11.75
2018-02-18T23:56:35.759Z,13.35
2018-02-18T23:59:02.901Z,12.30
